Sea Cloud II — 9HUE6 — position and weather

sailwx.info

Track history (hours):
 
Tides and Currents Weather Stations Pressure Air Temp Water Temp Dewpoint Dewpoint Depression Visibility Wind Speed Wind Dir Waves Ship Positions

Sea Cloud II

Ship's website: http://www.seacloud.com/en/the-ships/sea-cloud-ii.html

Last reported at 2017-Sep-21 22:53 UTC. Time now 2017-Sep-25 09:43 UTC.
Position N 43°20' E 009°40'.

Length 117 m; draft 6 m.

Type: Passenger vessel. MMSI: 248953000.

Date/timePositionNaut miles runAvg speedWind from/ knotsBaromVisibWave heightAir tempDewpointWater temp
2017-Sep-21 22:53N 43°20' E 009°40'412.0
2017-Sep-21 22:30N 43°25' E 009°42'611.6
2017-Sep-21 22:00N 43°30' E 009°43'611.7
2017-Sep-21 21:30N 43°36' E 009°45'611.9
2017-Sep-21 21:00N 43°42' E 009°46'611.7
2017-Sep-21 20:30N 43°48' E 009°47'611.4
2017-Sep-21 20:00N 43°53' E 009°50'611.6
2017-Sep-21 19:30N 43°59' E 009°52'5 9.4
2017-Sep-21 19:00N 44°03' E 009°52'0 0.7
2017-Sep-21 18:30N 44°03' E 009°51'0 0.0
2017-Sep-21 18:00N 44°03' E 009°51'0 0.0
2017-Sep-21 17:30N 44°03' E 009°51'0 0.0
2017-Sep-21 17:00N 44°03' E 009°51'0 0.0
2017-Sep-21 16:30N 44°03' E 009°51'0 0.0
2017-Sep-21 15:57N 44°03' E 009°51'0 0.0
2017-Sep-21 15:30N 44°03' E 009°51'0 0.0
2017-Sep-21 14:57N 44°03' E 009°51'0 0.0
2017-Sep-21 14:30N 44°03' E 009°51'0 0.0
2017-Sep-21 14:00N 44°03' E 009°51'0 0.0
2017-Sep-21 13:30N 44°03' E 009°51'0 0.0
2017-Sep-21 13:00N 44°03' E 009°51'0 0.0
2017-Sep-21 12:27N 44°03' E 009°51'0 0.0
2017-Sep-21 12:00N 44°03' E 009°51'0 0.0
2017-Sep-21 11:30N 44°03' E 009°51'0 0.0
2017-Sep-21 11:00N 44°03' E 009°51'0 0.0
2017-Sep-21 10:30N 44°03' E 009°51'0 0.1
2017-Sep-21 10:00N 44°03' E 009°51'0 0.0
2017-Sep-21 09:30N 44°03' E 009°51'0 0.0
2017-Sep-21 09:00N 44°03' E 009°51'0 0.0
2017-Sep-21 08:30N 44°03' E 009°51'0 0.0
2017-Sep-21 07:57N 44°03' E 009°51'0 0.0
2017-Sep-21 07:30N 44°03' E 009°51'0 0.0
2017-Sep-21 07:00N 44°03' E 009°51'0 0.0
2017-Sep-21 06:27N 44°03' E 009°51'0 0.1
2017-Sep-21 05:58N 44°03' E 009°51'1 2.7
2017-Sep-21 05:30N 44°03' E 009°53'2 3.6
2017-Sep-21 05:00N 44°01' E 009°54'3 6.3
2017-Sep-21 04:30N 43°59' E 009°51'3 6.9
2017-Sep-21 04:00N 43°57' E 009°47'3 6.7
2017-Sep-21 03:30N 43°55' E 009°43'3 6.8
2017-Sep-21 03:00N 43°53' E 009°40'3 6.7
2017-Sep-21 02:30N 43°51' E 009°36'3 6.8
2017-Sep-21 02:00N 43°48' E 009°32'3 6.9
2017-Sep-21 01:30N 43°47' E 009°28'4 7.2
2017-Sep-21 00:59N 43°47' E 009°23'3 7.1
2017-Sep-21 00:30N 43°47' E 009°18'5 9.7
2017-Sep-21 00:00N 43°47' E 009°11'510.6
2017-Sep-20 23:30N 43°47' E 009°04'510.4
2017-Sep-20 23:00N 43°46' E 008°57'610.3
2017-Sep-20 22:27N 43°46' E 008°49'4 8.9
2017-Sep-20 22:00N 43°46' E 008°43'1110.4
2017-Sep-20 21:00N 43°45' E 008°29'510.4
2017-Sep-20 20:30N 43°45' E 008°22'510.4
2017-Sep-20 20:00N 43°45' E 008°15'510.4
2017-Sep-20 19:30N 43°45' E 008°07'510.2
2017-Sep-20 19:00N 43°45' E 008°00'510.1
2017-Sep-20 18:30N 43°44' E 007°53'27 1.6
2017-Sep-20 01:19N 43°36' E 007°17'6 3.2
2017-Sep-19 23:21N 43°32' E 007°11'1 3.4
2017-Sep-19 23:00N 43°31' E 007°10'2 3.5
2017-Sep-19 22:30N 43°30' E 007°09'2 3.6
2017-Sep-19 22:00N 43°28' E 007°07'2 3.4
2017-Sep-19 21:30N 43°27' E 007°06'2 3.5
2017-Sep-19 21:00N 43°25' E 007°04'2 3.9
2017-Sep-19 20:30N 43°24' E 007°02'2 3.6
2017-Sep-19 20:00N 43°23' E 007°00'3 5.0
2017-Sep-19 19:29N 43°21' E 006°58'4 0.2
2017-Sep-18 23:46N 43°25' E 006°58'1 3.4
2017-Sep-18 23:31N 43°26' E 006°60'2 3.4
2017-Sep-18 23:00N 43°26' E 007°02'2 3.4
2017-Sep-18 22:31N 43°27' E 007°04'2 3.7
2017-Sep-18 22:01N 43°28' E 007°06'2 4.0
2017-Sep-18 21:31N 43°30' E 007°08'2 4.0
2017-Sep-18 21:00N 43°31' E 007°10'7 4.3
2017-Sep-18 19:26N 43°35' E 007°17'2 0.1
2017-Sep-18 04:20N 43°37' E 007°15'2 5.8
2017-Sep-18 03:55N 43°35' E 007°13'3 6.4
2017-Sep-18 03:28N 43°32' E 007°11'3 7.1
2017-Sep-18 03:00N 43°30' E 007°09'3 6.3
2017-Sep-18 02:30N 43°28' E 007°05'3 6.9
2017-Sep-18 02:00N 43°26' E 007°01'  
2017-Sep-12 04:13N 41°06' E 002°01'1810.4
2017-Sep-12 02:31N 40°52' E 001°46'110.3
2017-Sep-12 02:26N 40°51' E 001°45'610.8
2017-Sep-12 01:53N 40°47' E 001°40'410.8
2017-Sep-12 01:30N 40°44' E 001°36'510.4
2017-Sep-12 01:00N 40°41' E 001°31'5 9.8
2017-Sep-12 00:30N 40°37' E 001°27'5 9.9
2017-Sep-12 00:00N 40°34' E 001°22'510.3
2017-Sep-11 23:30N 40°30' E 001°17'510.5
2017-Sep-11 23:00N 40°26' E 001°12'  
Track history (hours):
 
Tides and Currents Weather Stations Pressure Air Temp Water Temp Dewpoint Dewpoint Depression Visibility Wind Speed Wind Dir Waves Ship Positions

Sea Cloud II

Ship's website: http://www.seacloud.com/en/the-ships/sea-cloud-ii.html

Last reported at 2017-Sep-21 22:53 UTC. Time now 2017-Sep-25 09:43 UTC.
Position N 43°20' E 009°40'.

Length 117 m; draft 6 m.

Type: Passenger vessel. MMSI: 248953000.

Date/timePositionNaut miles runAvg speedWind from/ knotsBaromVisibWave heightAir tempDewpointWater temp
2017-Sep-21 22:53N 43°20' E 009°40'412.0
2017-Sep-21 22:30N 43°25' E 009°42'611.6
2017-Sep-21 22:00N 43°30' E 009°43'611.7
2017-Sep-21 21:30N 43°36' E 009°45'611.9
2017-Sep-21 21:00N 43°42' E 009°46'611.7
2017-Sep-21 20:30N 43°48' E 009°47'611.4
2017-Sep-21 20:00N 43°53' E 009°50'611.6
2017-Sep-21 19:30N 43°59' E 009°52'5 9.4
2017-Sep-21 19:00N 44°03' E 009°52'0 0.7
2017-Sep-21 18:30N 44°03' E 009°51'0 0.0
2017-Sep-21 18:00N 44°03' E 009°51'0 0.0
2017-Sep-21 17:30N 44°03' E 009°51'0 0.0
2017-Sep-21 17:00N 44°03' E 009°51'0 0.0
2017-Sep-21 16:30N 44°03' E 009°51'0 0.0
2017-Sep-21 15:57N 44°03' E 009°51'0 0.0
2017-Sep-21 15:30N 44°03' E 009°51'0 0.0
2017-Sep-21 14:57N 44°03' E 009°51'0 0.0
2017-Sep-21 14:30N 44°03' E 009°51'0 0.0
2017-Sep-21 14:00N 44°03' E 009°51'0 0.0
2017-Sep-21 13:30N 44°03' E 009°51'0 0.0
2017-Sep-21 13:00N 44°03' E 009°51'0 0.0
2017-Sep-21 12:27N 44°03' E 009°51'0 0.0
2017-Sep-21 12:00N 44°03' E 009°51'0 0.0
2017-Sep-21 11:30N 44°03' E 009°51'0 0.0
2017-Sep-21 11:00N 44°03' E 009°51'0 0.0
2017-Sep-21 10:30N 44°03' E 009°51'0 0.1
2017-Sep-21 10:00N 44°03' E 009°51'0 0.0
2017-Sep-21 09:30N 44°03' E 009°51'0 0.0
2017-Sep-21 09:00N 44°03' E 009°51'0 0.0
2017-Sep-21 08:30N 44°03' E 009°51'0 0.0
2017-Sep-21 07:57N 44°03' E 009°51'0 0.0
2017-Sep-21 07:30N 44°03' E 009°51'0 0.0
2017-Sep-21 07:00N 44°03' E 009°51'0 0.0
2017-Sep-21 06:27N 44°03' E 009°51'0 0.1
2017-Sep-21 05:58N 44°03' E 009°51'1 2.7
2017-Sep-21 05:30N 44°03' E 009°53'2 3.6
2017-Sep-21 05:00N 44°01' E 009°54'3 6.3
2017-Sep-21 04:30N 43°59' E 009°51'3 6.9
2017-Sep-21 04:00N 43°57' E 009°47'3 6.7
2017-Sep-21 03:30N 43°55' E 009°43'3 6.8
2017-Sep-21 03:00N 43°53' E 009°40'3 6.7
2017-Sep-21 02:30N 43°51' E 009°36'3 6.8
2017-Sep-21 02:00N 43°48' E 009°32'3 6.9
2017-Sep-21 01:30N 43°47' E 009°28'4 7.2
2017-Sep-21 00:59N 43°47' E 009°23'3 7.1
2017-Sep-21 00:30N 43°47' E 009°18'5 9.7
2017-Sep-21 00:00N 43°47' E 009°11'510.6
2017-Sep-20 23:30N 43°47' E 009°04'510.4
2017-Sep-20 23:00N 43°46' E 008°57'610.3
2017-Sep-20 22:27N 43°46' E 008°49'4 8.9
2017-Sep-20 22:00N 43°46' E 008°43'1110.4
2017-Sep-20 21:00N 43°45' E 008°29'510.4
2017-Sep-20 20:30N 43°45' E 008°22'510.4
2017-Sep-20 20:00N 43°45' E 008°15'510.4
2017-Sep-20 19:30N 43°45' E 008°07'510.2
2017-Sep-20 19:00N 43°45' E 008°00'510.1
2017-Sep-20 18:30N 43°44' E 007°53'27 1.6
2017-Sep-20 01:19N 43°36' E 007°17'6 3.2
2017-Sep-19 23:21N 43°32' E 007°11'1 3.4
2017-Sep-19 23:00N 43°31' E 007°10'2 3.5
2017-Sep-19 22:30N 43°30' E 007°09'2 3.6
2017-Sep-19 22:00N 43°28' E 007°07'2 3.4
2017-Sep-19 21:30N 43°27' E 007°06'2 3.5
2017-Sep-19 21:00N 43°25' E 007°04'2 3.9
2017-Sep-19 20:30N 43°24' E 007°02'2 3.6
2017-Sep-19 20:00N 43°23' E 007°00'3 5.0
2017-Sep-19 19:29N 43°21' E 006°58'4 0.2
2017-Sep-18 23:46N 43°25' E 006°58'1 3.4
2017-Sep-18 23:31N 43°26' E 006°60'2 3.4
2017-Sep-18 23:00N 43°26' E 007°02'2 3.4
2017-Sep-18 22:31N 43°27' E 007°04'2 3.7
2017-Sep-18 22:01N 43°28' E 007°06'2 4.0
2017-Sep-18 21:31N 43°30' E 007°08'2 4.0
2017-Sep-18 21:00N 43°31' E 007°10'7 4.3
2017-Sep-18 19:26N 43°35' E 007°17'2 0.1
2017-Sep-18 04:20N 43°37' E 007°15'2 5.8
2017-Sep-18 03:55N 43°35' E 007°13'3 6.4
2017-Sep-18 03:28N 43°32' E 007°11'3 7.1
2017-Sep-18 03:00N 43°30' E 007°09'3 6.3
2017-Sep-18 02:30N 43°28' E 007°05'3 6.9
2017-Sep-18 02:00N 43°26' E 007°01'  
2017-Sep-12 04:13N 41°06' E 002°01'1810.4
2017-Sep-12 02:31N 40°52' E 001°46'110.3
2017-Sep-12 02:26N 40°51' E 001°45'610.8
2017-Sep-12 01:53N 40°47' E 001°40'410.8
2017-Sep-12 01:30N 40°44' E 001°36'510.4
2017-Sep-12 01:00N 40°41' E 001°31'5 9.8
2017-Sep-12 00:30N 40°37' E 001°27'5 9.9
2017-Sep-12 00:00N 40°34' E 001°22'510.3
2017-Sep-11 23:30N 40°30' E 001°17'510.5
2017-Sep-11 23:00N 40°26' E 001°12'  

Dump ship's entire track history